createdAt,value
2019-04-20T00:00:29.415Z,16.57
2019-04-20T00:01:32.077Z,16.57
2019-04-20T00:02:27.930Z,16.57
2019-04-20T00:03:32.770Z,16.58
2019-04-20T00:04:32.423Z,16.60
2019-04-20T00:05:27.921Z,16.58
2019-04-20T00:06:27.137Z,16.57
2019-04-20T00:07:30.093Z,16.57
2019-04-20T00:08:31.165Z,16.60
2019-04-20T00:09:31.744Z,16.60
2019-04-20T00:10:30.247Z,16.58
2019-04-20T00:11:36.442Z,16.57
2019-04-20T00:12:36.562Z,16.60
2019-04-20T00:13:36.593Z,16.60
2019-04-20T00:14:32.098Z,16.58
2019-04-20T00:15:28.270Z,16.60
2019-04-20T00:16:27.235Z,16.58
2019-04-20T00:17:26.773Z,16.58
2019-04-20T00:18:34.683Z,16.56
2019-04-20T00:19:35.508Z,16.50
2019-04-20T00:20:32.069Z,16.48
2019-04-20T00:21:28.933Z,16.42
2019-04-20T00:22:36.541Z,16.42
2019-04-20T00:23:33.682Z,16.41
2019-04-20T00:24:33.258Z,16.39
2019-04-20T00:25:44.361Z,16.35
2019-04-20T00:27:01.914Z,16.34
2019-04-20T00:27:52.601Z,16.34
2019-04-20T00:28:47.609Z,16.31
2019-04-20T00:29:45.418Z,16.27
2019-04-20T00:30:49.674Z,16.25
2019-04-20T00:31:42.785Z,16.21
2019-04-20T00:32:43.400Z,16.17
2019-04-20T00:33:39.646Z,16.11
2019-04-20T00:34:33.329Z,16.07
2019-04-20T00:35:27.575Z,16.04
2019-04-20T00:36:27.736Z,16.02
2019-04-20T00:37:27.735Z,16.01
2019-04-20T00:38:33.654Z,16.02
2019-04-20T00:39:27.900Z,16.01
2019-04-20T00:40:26.523Z,16.01
2019-04-20T00:41:27.589Z,15.97
2019-04-20T00:42:35.973Z,15.97
2019-04-20T00:43:32.152Z,15.97
2019-04-20T00:44:31.751Z,15.96
2019-04-20T00:45:30.599Z,15.94
2019-04-20T00:46:32.952Z,15.92
2019-04-20T00:47:37.386Z,15.93
2019-04-20T00:48:38.901Z,15.94
2019-04-20T00:49:41.627Z,15.94
2019-04-20T00:50:44.568Z,15.93
2019-04-20T00:51:48.147Z,15.94
2019-04-20T00:52:39.998Z,15.94
2019-04-20T00:53:34.229Z,15.93
2019-04-20T00:54:28.424Z,15.93
2019-04-20T00:55:27.323Z,15.94
2019-04-20T00:56:26.552Z,15.94
2019-04-20T00:57:37.984Z,15.90
2019-04-20T00:58:34.083Z,15.90
2019-04-20T00:59:43.093Z,15.90
2019-04-20T01:00:41.690Z,15.90
2019-04-20T01:01:49.026Z,15.87
2019-04-20T01:02:40.576Z,15.86
2019-04-20T01:03:43.500Z,15.83
2019-04-20T01:04:47.927Z,15.82
2019-04-20T01:05:46.380Z,15.80
2019-04-20T01:06:41.184Z,15.75
2019-04-20T01:07:35.097Z,15.75
2019-04-20T01:08:27.520Z,15.71
2019-04-20T01:09:26.504Z,15.68
2019-04-20T01:10:28.362Z,15.65
2019-04-20T01:11:33.962Z,15.64
2019-04-20T01:12:30.334Z,15.59
2019-04-20T01:13:28.483Z,15.57
2019-04-20T01:14:31.100Z,15.57
2019-04-20T01:15:38.793Z,15.56
2019-04-20T01:16:35.381Z,15.53
2019-04-20T01:17:27.109Z,15.54
2019-04-20T01:18:26.129Z,15.54
2019-04-20T01:19:26.097Z,15.54
2019-04-20T01:20:27.784Z,15.51
2019-04-20T01:21:28.794Z,15.53
2019-04-20T01:22:29.047Z,15.53
2019-04-20T01:23:35.479Z,15.53
2019-04-20T01:24:31.330Z,15.54
2019-04-20T01:25:32.320Z,15.56
2019-04-20T01:26:27.721Z,15.57
2019-04-20T01:27:39.616Z,15.57
2019-04-20T01:28:42.577Z,15.54
2019-04-20T01:29:37.198Z,15.54
2019-04-20T01:30:33.943Z,15.54
2019-04-20T01:31:35.460Z,15.54
2019-04-20T01:32:34.247Z,15.53
2019-04-20T01:33:40.063Z,15.54
2019-04-20T01:34:42.955Z,15.53
2019-04-20T01:35:47.932Z,15.56
2019-04-20T01:36:47.451Z,15.56
2019-04-20T01:37:39.461Z,15.53
2019-04-20T01:38:43.554Z,15.53
2019-04-20T01:39:35.412Z,15.53
2019-04-20T01:40:27.458Z,15.54
2019-04-20T01:41:26.529Z,15.56
2019-04-20T01:42:25.842Z,15.53
2019-04-20T01:43:26.952Z,15.51
2019-04-20T01:44:31.672Z,15.47
2019-04-20T01:45:31.433Z,15.47
2019-04-20T01:46:29.705Z,15.46
2019-04-20T01:47:32.240Z,15.44
2019-04-20T01:48:30.486Z,15.43
2019-04-20T01:49:30.571Z,15.41
2019-04-20T01:50:30.046Z,15.41
2019-04-20T01:51:32.549Z,15.38
2019-04-20T01:52:39.740Z,15.38
2019-04-20T01:53:44.372Z,15.38
2019-04-20T01:54:50.598Z,15.35
2019-04-20T01:55:42.540Z,15.31
2019-04-20T01:56:40.526Z,15.27
2019-04-20T01:57:37.386Z,15.25
2019-04-20T01:58:47.738Z,15.19
2019-04-20T01:59:34.543Z,15.19
2019-04-20T02:00:32.719Z,15.17
2019-04-20T02:01:31.054Z,15.14
2019-04-20T02:02:28.219Z,15.13
2019-04-20T02:03:31.140Z,15.14
2019-04-20T02:04:32.335Z,15.13
2019-04-20T02:05:31.836Z,15.09
2019-04-20T02:06:28.274Z,15.03
2019-04-20T02:07:34.626Z,15.02
2019-04-20T02:08:29.206Z,15.03
2019-04-20T02:09:28.048Z,15.03
2019-04-20T02:10:34.987Z,15.03
2019-04-20T02:11:34.173Z,15.03
2019-04-20T02:12:32.339Z,14.99
2019-04-20T02:13:36.245Z,14.96
2019-04-20T02:14:35.122Z,14.94
2019-04-20T02:15:32.695Z,14.91
2019-04-20T02:16:35.381Z,14.89
2019-04-20T02:17:36.910Z,14.88
2019-04-20T02:18:36.706Z,14.83
2019-04-20T02:19:43.191Z,14.81
2019-04-20T02:20:44.568Z,14.77
2019-04-20T02:21:43.317Z,14.72
2019-04-20T02:22:44.693Z,14.73
2019-04-20T02:23:37.716Z,14.70
2019-04-20T02:24:27.804Z,14.72
2019-04-20T02:25:25.367Z,14.69
2019-04-20T02:26:26.040Z,14.65
2019-04-20T02:27:33.879Z,14.68
2019-04-20T02:28:55.351Z,14.64
2019-04-20T02:29:58.244Z,14.64
2019-04-20T02:32:10.108Z,14.60
2019-04-20T02:33:08.278Z,14.55
2019-04-20T02:33:58.239Z,14.58
2019-04-20T02:35:03.336Z,14.58
2019-04-20T02:36:04.821Z,14.58
2019-04-20T02:37:14.106Z,14.58
2019-04-20T02:39:59.935Z,14.60
2019-04-20T02:41:03.259Z,14.58
2019-04-20T02:44:11.700Z,14.60
2019-04-20T02:45:20.432Z,14.60
2019-04-20T02:45:53.387Z,14.57
2019-04-20T02:47:14.046Z,14.55
2019-04-20T02:48:10.045Z,14.57
2019-04-20T02:49:00.719Z,14.55
2019-04-20T02:50:14.388Z,14.54
2019-04-20T02:50:59.649Z,14.52
2019-04-20T02:52:06.718Z,14.52
2019-04-20T02:53:05.084Z,14.52
2019-04-20T02:54:16.907Z,14.52
2019-04-20T02:55:05.920Z,14.52
2019-04-20T02:56:04.737Z,14.50
2019-04-20T02:58:01.935Z,14.47
2019-04-20T02:59:15.198Z,14.42
2019-04-20T03:00:05.483Z,14.37
2019-04-20T03:01:02.305Z,14.35
2019-04-20T03:01:45.484Z,14.33
2019-04-20T03:02:40.903Z,14.33
2019-04-20T03:03:35.390Z,14.32
2019-04-20T03:04:37.089Z,14.32
2019-04-20T03:05:37.115Z,14.29
2019-04-20T03:06:36.136Z,14.25
2019-04-20T03:07:41.509Z,14.22
2019-04-20T03:08:47.311Z,14.18
2019-04-20T03:09:46.920Z,14.15
2019-04-20T03:10:54.948Z,14.17
2019-04-20T03:11:53.014Z,14.17
2019-04-20T03:12:42.781Z,14.14
2019-04-20T03:13:53.232Z,14.15
2019-04-20T03:14:40.089Z,14.10
2019-04-20T03:15:48.525Z,14.09
2019-04-20T03:16:45.452Z,14.07
2019-04-20T03:17:46.486Z,14.06
2019-04-20T03:18:44.596Z,14.06
2019-04-20T03:19:41.193Z,14.06
2019-04-20T03:20:46.618Z,14.04
2019-04-20T03:21:52.835Z,14.02
2019-04-20T03:23:17.282Z,14.03
2019-04-20T03:23:50.069Z,14.04
2019-04-20T03:24:48.644Z,14.03
2019-04-20T03:25:48.917Z,14.00
2019-04-20T03:26:43.066Z,14.02
2019-04-20T03:27:42.425Z,13.99
2019-04-20T03:28:45.403Z,14.02
2019-04-20T03:29:46.913Z,14.00
2019-04-20T03:33:05.943Z,13.95
2019-04-20T03:34:13.413Z,13.96
2019-04-20T03:35:52.775Z,13.91
2019-04-20T03:36:57.167Z,13.87
2019-04-20T03:37:50.994Z,13.87
2019-04-20T03:38:45.433Z,13.87
2019-04-20T03:39:41.668Z,13.87
2019-04-20T03:40:40.178Z,13.84
2019-04-20T03:41:33.282Z,13.85
2019-04-20T03:42:26.718Z,13.87
2019-04-20T03:43:24.574Z,13.88
2019-04-20T03:44:28.751Z,13.88
2019-04-20T03:45:28.127Z,13.85
2019-04-20T03:46:35.703Z,13.85
2019-04-20T03:47:35.899Z,13.82
2019-04-20T03:48:43.905Z,13.78
2019-04-20T03:49:52.935Z,13.77
2019-04-20T03:50:46.753Z,13.71
2019-04-20T03:51:53.428Z,13.67
2019-04-20T03:52:43.164Z,13.69
2019-04-20T03:53:43.315Z,13.70
2019-04-20T03:54:39.149Z,13.70
2019-04-20T03:55:44.549Z,13.71
2019-04-20T03:56:46.354Z,13.71
2019-04-20T03:57:45.908Z,13.70
2019-04-20T03:58:45.996Z,13.69
2019-04-20T03:59:47.205Z,13.69
2019-04-20T04:00:42.784Z,13.69
2019-04-20T04:02:08.912Z,13.71
2019-04-20T04:02:54.410Z,13.71
2019-04-20T04:04:47.261Z,13.69
2019-04-20T04:05:41.017Z,13.69
2019-04-20T04:06:34.065Z,13.66
2019-04-20T04:07:32.373Z,13.67
2019-04-20T04:08:32.912Z,13.66
2019-04-20T04:09:35.809Z,13.64
2019-04-20T04:10:44.281Z,13.64
2019-04-20T04:11:39.148Z,13.64
2019-04-20T04:12:30.660Z,13.66
2019-04-20T04:13:25.180Z,13.67
2019-04-20T04:14:24.219Z,13.70
2019-04-20T04:15:25.185Z,13.71
2019-04-20T04:16:32.847Z,13.73
2019-04-20T04:17:31.405Z,13.73
2019-04-20T04:18:31.852Z,13.73
2019-04-20T04:19:30.065Z,13.75
2019-04-20T04:20:33.247Z,13.75
2019-04-20T04:21:43.956Z,13.75
2019-04-20T04:23:40.622Z,13.77
2019-04-20T04:24:35.818Z,13.75
2019-04-20T04:25:40.957Z,13.78
2019-04-20T04:26:38.993Z,13.81
2019-04-20T04:27:40.497Z,13.82
2019-04-20T04:28:40.898Z,13.84
2019-04-20T04:29:47.172Z,13.84
2019-04-20T04:30:39.293Z,13.82
2019-04-20T04:31:45.709Z,13.79
2019-04-20T04:33:17.774Z,13.79
2019-04-20T04:33:59.339Z,13.79
2019-04-20T04:34:47.861Z,13.81
2019-04-20T04:35:39.046Z,13.78
2019-04-20T04:36:40.444Z,13.78
2019-04-20T04:37:45.852Z,13.79
2019-04-20T04:38:51.737Z,13.81
2019-04-20T04:39:47.169Z,13.79
2019-04-20T04:40:49.474Z,13.78
2019-04-20T04:41:39.854Z,13.75
2019-04-20T04:42:48.865Z,13.73
2019-04-20T04:43:44.111Z,13.75
2019-04-20T04:44:37.503Z,13.71
2019-04-20T04:45:27.251Z,13.70
2019-04-20T04:46:24.982Z,13.67
2019-04-20T04:47:24.028Z,13.67
2019-04-20T04:48:31.283Z,13.67
2019-04-20T04:49:31.118Z,13.67
2019-04-20T04:50:27.870Z,13.67
2019-04-20T04:51:29.477Z,13.67
2019-04-20T04:52:33.071Z,13.67
2019-04-20T04:53:36.958Z,13.69
2019-04-20T04:54:34.676Z,13.69
2019-04-20T04:55:35.255Z,13.71
2019-04-20T04:56:26.798Z,13.70
2019-04-20T04:57:24.277Z,13.71
2019-04-20T04:58:23.722Z,13.75
2019-04-20T04:59:23.683Z,13.78
2019-04-20T05:00:28.229Z,13.79
2019-04-20T05:01:28.612Z,13.79
2019-04-20T05:02:29.792Z,13.77
2019-04-20T05:03:38.804Z,13.77
2019-04-20T05:04:52.897Z,13.75
2019-04-20T05:05:41.321Z,13.73
2019-04-20T05:06:38.335Z,13.75
2019-04-20T05:07:39.794Z,13.75
2019-04-20T05:08:32.634Z,13.78
2019-04-20T05:09:25.541Z,13.79
2019-04-20T05:10:24.620Z,13.79
2019-04-20T05:11:23.877Z,13.78
2019-04-20T05:12:27.254Z,13.78
2019-04-20T05:13:27.651Z,13.79
2019-04-20T05:14:39.747Z,13.81
2019-04-20T05:15:39.023Z,13.85
2019-04-20T05:16:54.936Z,13.89
2019-04-20T05:17:43.611Z,13.92
2019-04-20T05:18:55.461Z,13.99
2019-04-20T05:19:49.855Z,14.03
2019-04-20T05:20:47.511Z,14.09
2019-04-20T05:21:51.370Z,14.17
2019-04-20T05:22:41.177Z,14.27
2019-04-20T05:23:37.825Z,14.42
2019-04-20T05:24:41.657Z,14.62
2019-04-20T05:25:43.069Z,14.95
2019-04-20T05:26:42.432Z,15.35
2019-04-20T05:27:46.596Z,15.76
2019-04-20T05:28:39.252Z,16.21
2019-04-20T05:29:29.830Z,16.60
2019-04-20T05:30:24.593Z,16.97
2019-04-20T05:31:30.888Z,17.22
2019-04-20T05:32:35.903Z,17.62
2019-04-20T05:33:36.781Z,17.93
2019-04-20T05:34:45.282Z,18.08
2019-04-20T05:35:44.151Z,18.29
2019-04-20T05:36:44.651Z,18.50
2019-04-20T05:37:51.421Z,18.65
2019-04-20T05:38:47.068Z,18.60
2019-04-20T05:39:44.819Z,18.52
2019-04-20T05:40:45.981Z,18.44
2019-04-20T05:41:42.014Z,18.54
2019-04-20T05:42:43.895Z,18.67
2019-04-20T05:43:45.758Z,18.66
2019-04-20T05:44:46.090Z,18.54
2019-04-20T05:45:40.615Z,18.39
2019-04-20T05:46:42.512Z,18.29
2019-04-20T05:47:43.113Z,18.15
2019-04-20T05:48:48.795Z,17.90
2019-04-20T05:49:44.008Z,17.54
2019-04-20T05:50:46.880Z,17.21
2019-04-20T05:51:45.114Z,16.88
2019-04-20T05:52:53.289Z,16.64
2019-04-20T05:53:45.742Z,16.41
2019-04-20T05:54:47.598Z,16.12
2019-04-20T05:55:47.031Z,15.97
2019-04-20T05:56:45.651Z,15.87
2019-04-20T05:57:49.050Z,15.72
2019-04-20T05:58:46.031Z,15.60
2019-04-20T05:59:51.603Z,15.56
2019-04-20T06:00:47.913Z,15.49
2019-04-20T06:01:51.232Z,15.43
2019-04-20T06:02:46.541Z,15.39
2019-04-20T06:03:42.645Z,15.35
2019-04-20T06:05:56.800Z,15.29
2019-04-20T06:06:45.168Z,15.27
2019-04-20T06:07:46.156Z,15.27
2019-04-20T06:09:46.348Z,15.32
2019-04-20T06:10:45.593Z,15.44
2019-04-20T06:12:00.856Z,15.67
2019-04-20T06:12:56.696Z,16.00
2019-04-20T06:13:40.288Z,16.43
2019-04-20T06:14:39.519Z,16.96
2019-04-20T06:15:43.035Z,17.44
2019-04-20T06:16:52.776Z,17.89
2019-04-20T06:17:45.612Z,18.36
2019-04-20T06:18:37.286Z,18.85
2019-04-20T06:19:42.219Z,19.28
2019-04-20T06:21:02.388Z,19.68
2019-04-20T06:21:54.332Z,20.08
2019-04-20T06:22:50.577Z,20.39
2019-04-20T06:23:50.867Z,20.59
2019-04-20T06:24:52.590Z,20.80
2019-04-20T06:25:59.243Z,20.92
2019-04-20T06:27:48.579Z,20.08
2019-04-20T06:28:40.055Z,19.65
2019-04-20T06:29:45.737Z,19.41
2019-04-20T06:30:34.731Z,19.28
2019-04-20T06:31:48.682Z,19.41
2019-04-20T06:32:50.804Z,19.54
2019-04-20T06:34:04.020Z,19.65
2019-04-20T06:34:50.116Z,19.61
2019-04-20T06:36:02.464Z,19.86
2019-04-20T06:36:48.630Z,20.03
2019-04-20T06:37:53.700Z,20.20
2019-04-20T06:39:49.290Z,20.10
2019-04-20T06:41:00.608Z,20.23
2019-04-20T06:42:52.007Z,20.42
2019-04-20T06:43:47.693Z,20.59
2019-04-20T06:44:39.744Z,20.67
2019-04-20T06:45:54.846Z,20.74
2019-04-20T06:46:54.280Z,20.88
2019-04-20T06:47:47.062Z,20.98
2019-04-20T06:48:47.076Z,20.94
2019-04-20T06:50:03.351Z,20.88
2019-04-20T06:50:39.056Z,20.87
2019-04-20T06:51:47.534Z,20.91
2019-04-20T06:52:37.421Z,21.10
2019-04-20T06:53:46.929Z,21.27
2019-04-20T06:54:43.163Z,21.28
2019-04-20T06:55:54.733Z,21.25
2019-04-20T06:56:48.116Z,21.13
2019-04-20T06:57:45.462Z,20.98
2019-04-20T06:58:53.816Z,20.92
2019-04-20T07:00:46.570Z,20.72
2019-04-20T07:01:48.962Z,20.64
2019-04-20T07:02:44.290Z,20.66
2019-04-20T07:04:13.854Z,20.82
2019-04-20T07:04:48.601Z,20.80
2019-04-20T07:05:48.950Z,20.89
2019-04-20T07:06:50.658Z,21.07
2019-04-20T07:07:47.535Z,21.12
2019-04-20T07:09:52.907Z,21.19
2019-04-20T07:10:51.924Z,21.09
2019-04-20T07:11:42.632Z,21.09
2019-04-20T07:12:43.745Z,20.98
2019-04-20T07:13:37.405Z,21.03
2019-04-20T07:14:39.141Z,21.09
2019-04-20T07:15:40.151Z,21.12
2019-04-20T07:16:46.469Z,21.10
2019-04-20T07:18:43.485Z,21.09
2019-04-20T07:19:40.316Z,21.14
2019-04-20T07:20:52.604Z,21.17
2019-04-20T07:22:00.554Z,21.24
2019-04-20T07:22:46.391Z,21.34
2019-04-20T07:23:47.728Z,21.43
2019-04-20T07:24:48.694Z,21.44
2019-04-20T07:26:06.773Z,21.34
2019-04-20T07:26:50.214Z,21.25
2019-04-20T07:27:48.988Z,21.22
2019-04-20T07:28:51.200Z,21.28
2019-04-20T07:29:46.367Z,21.42
2019-04-20T07:30:45.210Z,21.37
2019-04-20T07:31:43.368Z,21.34
2019-04-20T07:32:48.424Z,21.27
2019-04-20T07:33:46.668Z,21.13
2019-04-20T07:34:48.795Z,21.06
2019-04-20T07:35:40.119Z,20.89
2019-04-20T07:36:51.508Z,20.76
2019-04-20T07:38:46.252Z,20.85
2019-04-20T07:39:40.320Z,20.88
2019-04-20T07:40:44.446Z,20.88
2019-04-20T07:41:47.911Z,20.91
2019-04-20T07:42:46.763Z,21.04
2019-04-20T07:43:55.456Z,21.07
2019-04-20T07:44:48.782Z,21.12
2019-04-20T07:45:40.191Z,21.13
2019-04-20T07:46:56.450Z,20.91
2019-04-20T07:48:43.167Z,20.84
2019-04-20T07:49:44.387Z,20.76
2019-04-20T07:50:37.302Z,20.77
2019-04-20T07:51:28.270Z,20.79
2019-04-20T07:52:35.189Z,20.82
2019-04-20T07:53:36.237Z,20.84
2019-04-20T07:54:50.679Z,20.89
2019-04-20T07:56:02.421Z,20.95
2019-04-20T07:56:42.226Z,21.07
2019-04-20T07:57:39.432Z,21.25
2019-04-20T07:58:33.881Z,21.43
2019-04-20T07:59:30.599Z,21.56
2019-04-20T08:01:52.729Z,21.27
2019-04-20T08:02:56.221Z,21.14
2019-04-20T08:03:44.506Z,21.16
2019-04-20T08:04:42.495Z,21.21
2019-04-20T08:05:36.354Z,21.29
2019-04-20T08:06:33.140Z,21.38
2019-04-20T08:07:36.100Z,21.46
2019-04-20T08:08:42.204Z,21.58
2019-04-20T08:09:32.714Z,21.64
2019-04-20T08:10:54.436Z,21.64
2019-04-20T08:11:50.087Z,21.77
2019-04-20T08:12:49.937Z,21.79
2019-04-20T08:13:46.712Z,21.84
2019-04-20T08:14:50.612Z,21.91
2019-04-20T08:18:45.739Z,21.99
2019-04-20T08:19:40.457Z,22.05
2019-04-20T08:20:47.936Z,21.99
2019-04-20T08:21:42.285Z,22.07
2019-04-20T08:22:41.024Z,22.21
2019-04-20T08:23:44.465Z,22.33
2019-04-20T08:24:37.487Z,22.39
2019-04-20T08:25:31.560Z,22.51
2019-04-20T08:26:28.983Z,22.65
2019-04-20T08:27:23.473Z,22.73
2019-04-20T08:28:33.380Z,22.67
2019-04-20T08:29:38.178Z,22.47
2019-04-20T08:30:38.842Z,22.47
2019-04-20T08:31:35.817Z,22.54
2019-04-20T08:32:38.863Z,22.65
2019-04-20T08:33:42.658Z,22.77
2019-04-20T08:35:02.070Z,22.88
2019-04-20T08:35:48.117Z,22.90
2019-04-20T08:36:45.467Z,22.98
2019-04-20T08:37:59.650Z,22.92
2019-04-20T08:39:05.811Z,22.92
2019-04-20T08:39:51.198Z,22.94
2019-04-20T08:40:43.943Z,22.90
2019-04-20T08:41:48.790Z,22.88
2019-04-20T08:42:57.267Z,22.92
2019-04-20T08:44:56.173Z,23.09
2019-04-20T08:45:49.488Z,23.13
2019-04-20T08:46:53.555Z,23.07
2019-04-20T08:48:43.543Z,23.10
2019-04-20T08:49:41.494Z,23.22
2019-04-20T08:50:41.249Z,23.28
2019-04-20T08:51:49.687Z,23.39
2019-04-20T08:53:06.508Z,23.36
2019-04-20T08:53:42.043Z,23.28
2019-04-20T08:54:40.485Z,23.25
2019-04-20T08:55:37.460Z,23.07
2019-04-20T08:56:35.115Z,23.16
2019-04-20T08:57:22.539Z,23.35
2019-04-20T08:58:22.348Z,23.48
2019-04-20T08:59:21.150Z,23.61
2019-04-20T09:00:29.666Z,23.66
2019-04-20T09:01:27.160Z,23.55
2019-04-20T09:02:22.178Z,23.43
2019-04-20T09:03:27.329Z,23.48
2019-04-20T09:04:33.827Z,23.61
2019-04-20T09:05:34.889Z,23.80
2019-04-20T09:06:38.910Z,23.87
2019-04-20T09:07:25.132Z,23.60
2019-04-20T09:08:28.076Z,23.60
2019-04-20T09:09:49.664Z,23.73
2019-04-20T09:10:54.908Z,23.91
2019-04-20T09:11:47.516Z,24.09
2019-04-20T09:12:42.210Z,24.27
2019-04-20T09:13:32.075Z,24.46
2019-04-20T09:14:23.535Z,24.43
2019-04-20T09:15:21.163Z,24.49
2019-04-20T09:16:26.959Z,24.57
2019-04-20T09:17:29.677Z,24.68
2019-04-20T09:18:29.381Z,24.71
2019-04-20T09:19:29.916Z,24.73
2019-04-20T09:20:31.757Z,24.77
2019-04-20T09:21:34.498Z,24.80
2019-04-20T09:22:34.092Z,24.91
2019-04-20T09:23:36.796Z,24.99
2019-04-20T09:24:49.083Z,25.10
2019-04-20T09:26:37.595Z,25.25
2019-04-20T09:27:32.545Z,25.27
2019-04-20T09:28:31.886Z,25.18
2019-04-20T09:29:35.830Z,25.18
2019-04-20T09:30:34.868Z,25.15
2019-04-20T09:31:35.170Z,25.17
2019-04-20T09:32:39.549Z,25.10
2019-04-20T09:33:41.771Z,25.03
2019-04-20T09:34:42.379Z,25.13
2019-04-20T09:35:38.699Z,25.09
2019-04-20T09:36:35.302Z,25.10
2019-04-20T09:37:44.655Z,25.23
2019-04-20T09:38:35.050Z,25.38
2019-04-20T09:39:30.365Z,25.43
2019-04-20T09:40:40.237Z,25.43
2019-04-20T09:41:39.524Z,25.40
2019-04-20T09:42:21.658Z,25.42
2019-04-20T09:43:21.718Z,25.43
2019-04-20T09:44:25.714Z,25.45
2019-04-20T09:45:27.445Z,25.36
2019-04-20T09:46:22.254Z,25.42
2019-04-20T09:47:29.492Z,25.42
2019-04-20T09:48:32.051Z,25.43
2019-04-20T09:49:35.299Z,25.46
2019-04-20T09:50:38.712Z,25.40
2019-04-20T09:51:42.388Z,25.43
2019-04-20T09:52:48.002Z,25.54
2019-04-20T09:53:34.971Z,25.61
2019-04-20T09:54:40.407Z,25.58
2019-04-20T09:55:31.157Z,25.64
2019-04-20T09:56:38.344Z,25.73
2019-04-20T09:57:38.132Z,25.54
2019-04-20T09:58:33.726Z,25.38
2019-04-20T09:59:38.247Z,25.42
2019-04-20T10:00:38.277Z,25.38
2019-04-20T10:01:31.217Z,25.45
2019-04-20T10:02:25.932Z,25.64
2019-04-20T10:03:22.659Z,25.80
2019-04-20T10:04:21.547Z,25.95
2019-04-20T10:05:20.410Z,26.05
2019-04-20T10:06:25.825Z,26.09
2019-04-20T10:07:24.236Z,26.15
2019-04-20T10:08:21.781Z,26.17
2019-04-20T10:09:30.590Z,26.23
2019-04-20T10:10:31.623Z,26.15
2019-04-20T10:11:21.464Z,26.12
2019-04-20T10:12:21.738Z,26.02
2019-04-20T10:13:21.470Z,26.02
2019-04-20T10:14:20.393Z,26.10
2019-04-20T10:15:23.404Z,26.05
2019-04-20T10:16:21.878Z,25.88
2019-04-20T10:17:20.357Z,25.79
2019-04-20T10:18:21.780Z,25.73
2019-04-20T10:19:24.889Z,25.79
2019-04-20T10:20:29.240Z,25.90
2019-04-20T10:21:21.259Z,26.02
2019-04-20T10:22:20.472Z,26.09
2019-04-20T10:23:20.728Z,26.07
2019-04-20T10:24:20.895Z,25.85
2019-04-20T10:25:20.557Z,25.64
2019-04-20T10:26:20.594Z,25.57
2019-04-20T10:27:20.942Z,25.55
2019-04-20T10:28:21.429Z,25.69
2019-04-20T10:29:21.547Z,25.87
2019-04-20T10:30:20.732Z,26.09
2019-04-20T10:31:20.307Z,26.30
2019-04-20T10:32:21.501Z,26.40
2019-04-20T10:33:21.708Z,26.54
2019-04-20T10:34:22.811Z,26.65
2019-04-20T10:35:21.062Z,26.60
2019-04-20T10:36:21.461Z,26.69
2019-04-20T10:37:20.081Z,26.77
2019-04-20T10:38:21.382Z,26.84
2019-04-20T10:39:20.408Z,26.91
2019-04-20T10:40:35.800Z,26.99
2019-04-20T10:41:34.146Z,27.03
2019-04-20T10:42:21.082Z,27.02
2019-04-20T10:43:20.034Z,26.97
2019-04-20T10:44:20.928Z,26.99
2019-04-20T10:45:21.167Z,27.04
2019-04-20T10:46:20.741Z,27.10
2019-04-20T10:47:21.086Z,27.19
2019-04-20T10:48:21.349Z,27.31
2019-04-20T10:49:19.966Z,27.25
2019-04-20T10:50:20.921Z,26.97
2019-04-20T10:51:19.996Z,26.82
2019-04-20T10:52:20.088Z,26.87
2019-04-20T10:53:19.925Z,26.95
2019-04-20T10:54:20.467Z,26.95
2019-04-20T10:55:20.733Z,27.03
2019-04-20T10:56:21.244Z,27.04
2019-04-20T10:57:19.887Z,27.04
2019-04-20T10:58:19.900Z,27.03
2019-04-20T10:59:19.869Z,27.07
2019-04-20T11:00:19.882Z,27.25
2019-04-20T11:01:20.018Z,27.32
2019-04-20T11:02:19.844Z,27.36
2019-04-20T11:03:19.900Z,27.32
2019-04-20T11:04:20.877Z,27.28
2019-04-20T11:05:20.382Z,27.34
2019-04-20T11:06:20.576Z,27.43
2019-04-20T11:07:20.772Z,27.36
2019-04-20T11:08:20.387Z,27.18
2019-04-20T11:09:20.714Z,26.85
2019-04-20T11:10:25.254Z,26.70
2019-04-20T11:11:26.489Z,26.73
2019-04-20T11:12:22.060Z,26.62
2019-04-20T11:13:19.743Z,26.72
2019-04-20T11:14:26.383Z,26.67
2019-04-20T11:15:21.013Z,26.75
2019-04-20T11:16:20.218Z,26.57
2019-04-20T11:17:20.419Z,26.66
2019-04-20T11:18:19.771Z,26.89
2019-04-20T11:19:21.129Z,27.09
2019-04-20T11:20:19.666Z,27.21
2019-04-20T11:21:19.711Z,27.32
2019-04-20T11:22:20.052Z,27.39
2019-04-20T11:23:20.331Z,27.40
2019-04-20T11:24:20.471Z,27.46
2019-04-20T11:25:19.930Z,27.47
2019-04-20T11:26:20.253Z,27.44
2019-04-20T11:27:20.392Z,27.28
2019-04-20T11:28:19.881Z,27.31
2019-04-20T11:29:20.070Z,27.39
2019-04-20T11:30:20.405Z,27.37
2019-04-20T11:31:20.045Z,27.36
2019-04-20T11:32:20.182Z,27.24
2019-04-20T11:33:20.372Z,27.18
2019-04-20T11:34:23.483Z,27.27
2019-04-20T11:35:28.022Z,27.39
2019-04-20T11:36:21.216Z,27.51
2019-04-20T11:37:19.550Z,27.44
2019-04-20T11:38:19.714Z,27.43
2019-04-20T11:39:20.832Z,27.41
2019-04-20T11:40:19.453Z,27.51
2019-04-20T11:41:25.654Z,27.65
2019-04-20T11:42:21.743Z,27.63
2019-04-20T11:43:19.832Z,27.32
2019-04-20T11:44:20.041Z,27.06
2019-04-20T11:45:20.533Z,26.77
2019-04-20T11:46:20.574Z,26.63
2019-04-20T11:47:19.389Z,26.69
2019-04-20T11:48:19.366Z,26.45
2019-04-20T11:49:19.491Z,26.51
2019-04-20T11:50:19.861Z,26.69
2019-04-20T11:51:19.339Z,26.87
2019-04-20T11:52:21.386Z,27.07
2019-04-20T11:53:19.439Z,27.10
2019-04-20T11:54:19.313Z,27.19
2019-04-20T11:55:20.160Z,27.25
2019-04-20T11:56:25.761Z,27.41
2019-04-20T11:57:21.330Z,27.55
2019-04-20T11:58:19.726Z,27.57
2019-04-20T11:59:19.249Z,27.60
2019-04-20T12:00:22.070Z,27.59
2019-04-20T12:01:22.542Z,27.63
2019-04-20T12:02:27.886Z,27.70
2019-04-20T12:03:27.959Z,27.84
2019-04-20T12:04:34.069Z,27.96
2019-04-20T12:05:30.461Z,27.93
2019-04-20T12:06:21.137Z,27.82
2019-04-20T12:07:19.281Z,27.59
2019-04-20T12:08:19.163Z,27.41
2019-04-20T12:09:19.213Z,27.10
2019-04-20T12:10:22.382Z,26.97
2019-04-20T12:11:30.386Z,27.03
2019-04-20T12:12:30.081Z,27.14
2019-04-20T12:13:20.550Z,27.27
2019-04-20T12:14:19.155Z,27.17
2019-04-20T12:15:19.093Z,26.88
2019-04-20T12:16:19.395Z,26.82
2019-04-20T12:17:19.655Z,26.82
2019-04-20T12:18:19.810Z,26.92
2019-04-20T12:19:19.058Z,26.92
2019-04-20T12:20:19.037Z,27.02
2019-04-20T12:21:19.037Z,27.12
2019-04-20T12:22:19.047Z,27.07
2019-04-20T12:23:20.124Z,26.97
2019-04-20T12:24:20.388Z,26.92
2019-04-20T12:25:20.385Z,26.89
2019-04-20T12:26:18.999Z,26.76
2019-04-20T12:27:18.976Z,26.87
2019-04-20T12:28:19.860Z,26.77
2019-04-20T12:29:19.574Z,26.73
2019-04-20T12:30:19.614Z,26.84
2019-04-20T12:31:22.783Z,26.92
2019-04-20T12:32:19.934Z,27.06
2019-04-20T12:33:18.914Z,27.28
2019-04-20T12:34:20.164Z,27.54
2019-04-20T12:35:20.056Z,27.63
2019-04-20T12:36:18.953Z,27.60
2019-04-20T12:37:18.873Z,27.63
2019-04-20T12:38:19.161Z,27.74
2019-04-20T12:39:19.286Z,27.79
2019-04-20T12:40:19.897Z,27.77
2019-04-20T12:41:31.974Z,27.82
2019-04-20T12:42:21.104Z,27.82
2019-04-20T12:43:19.147Z,27.82
2019-04-20T12:44:19.722Z,27.93
2019-04-20T12:45:19.656Z,28.00
2019-04-20T12:46:21.436Z,27.90
2019-04-20T12:47:19.657Z,27.75
2019-04-20T12:48:19.710Z,27.74
2019-04-20T12:49:19.885Z,27.77
2019-04-20T12:50:19.355Z,27.79
2019-04-20T12:51:19.629Z,27.81
2019-04-20T12:52:18.727Z,27.85
2019-04-20T12:53:20.334Z,27.85
2019-04-20T12:54:18.708Z,27.84
2019-04-20T12:55:18.852Z,27.87
2019-04-20T12:56:18.681Z,27.94
2019-04-20T12:57:18.686Z,28.02
2019-04-20T12:58:18.701Z,28.04
2019-04-20T12:59:18.810Z,28.04
2019-04-20T13:00:19.503Z,27.90
2019-04-20T13:01:21.018Z,27.77
2019-04-20T13:02:19.571Z,27.74
2019-04-20T13:03:19.370Z,27.72
2019-04-20T13:04:18.602Z,27.66
2019-04-20T13:05:19.538Z,27.46
2019-04-20T13:06:19.565Z,27.43
2019-04-20T13:07:19.625Z,27.46
2019-04-20T13:08:28.694Z,27.54
2019-04-20T13:09:20.836Z,27.51
2019-04-20T13:10:18.567Z,27.41
2019-04-20T13:11:18.534Z,27.37
2019-04-20T13:12:19.383Z,27.27
2019-04-20T13:13:18.592Z,27.12
2019-04-20T13:14:18.576Z,27.10
2019-04-20T13:15:18.524Z,27.07
2019-04-20T13:16:18.530Z,27.02
2019-04-20T13:17:18.487Z,27.02
2019-04-20T13:18:19.087Z,27.07
2019-04-20T13:19:19.326Z,27.13
2019-04-20T13:20:18.469Z,27.09